createdAt,value
2019-04-21T00:00:06.225Z,12.75
2019-04-21T00:05:37.312Z,12.69
2019-04-21T00:10:39.972Z,12.74
2019-04-21T00:15:29.758Z,12.69
2019-04-21T00:20:35.231Z,12.69
2019-04-21T00:25:45.837Z,12.66
2019-04-21T00:30:56.972Z,12.67
2019-04-21T00:35:51.137Z,12.47
2019-04-21T00:41:05.487Z,12.34
2019-04-21T00:46:04.896Z,12.33
2019-04-21T00:56:27.618Z,12.23
2019-04-21T01:01:31.222Z,12.20
2019-04-21T01:06:35.207Z,12.14
2019-04-21T01:11:44.971Z,11.91
2019-04-21T01:16:45.826Z,11.96
2019-04-21T01:21:30.179Z,11.91
2019-04-21T01:26:43.964Z,11.82
2019-04-21T01:32:07.504Z,11.67
2019-04-21T01:37:00.106Z,11.53
2019-04-21T01:42:08.922Z,11.40
2019-04-21T01:47:13.100Z,11.34
2019-04-21T01:52:34.842Z,11.39
2019-04-21T01:57:42.533Z,11.27
2019-04-21T02:02:54.970Z,11.15
2019-04-21T02:07:57.755Z,11.13
2019-04-21T02:13:03.649Z,11.11
2019-04-21T02:18:06.068Z,11.06
2019-04-21T02:28:30.855Z,10.82
2019-04-21T02:33:36.272Z,10.74
2019-04-21T02:38:44.740Z,10.63
2019-04-21T02:43:48.213Z,10.44
2019-04-21T02:48:55.490Z,10.42
2019-04-21T02:59:06.724Z,10.45
2019-04-21T03:09:25.993Z,10.10
2019-04-21T03:14:38.494Z,10.18
2019-04-21T03:19:46.076Z,10.25
2019-04-21T03:24:53.980Z,10.13
2019-04-21T03:29:44.726Z,10.26
2019-04-21T03:35:15.017Z,10.10
2019-04-21T03:44:57.100Z,10.07
2019-04-21T04:00:49.844Z,9.97
2019-04-21T04:06:13.359Z,9.94
2019-04-21T04:11:12.350Z,9.79
2019-04-21T04:16:10.567Z,9.85
2019-04-21T04:21:19.933Z,9.76
2019-04-21T04:26:15.326Z,9.76
2019-04-21T04:42:03.577Z,9.86
2019-04-21T04:47:04.562Z,9.60
2019-04-21T05:12:15.872Z,9.58
2019-04-21T05:17:37.750Z,9.67
2019-04-21T05:22:31.131Z,9.75
2019-04-21T05:27:36.538Z,9.87
2019-04-21T05:33:01.291Z,10.00
2019-04-21T05:38:06.237Z,10.14
2019-04-21T05:43:07.940Z,10.28
2019-04-21T05:48:22.915Z,10.33
2019-04-21T05:53:29.974Z,10.38
2019-04-21T05:58:27.254Z,10.45
2019-04-21T06:03:44.511Z,10.53
2019-04-21T06:08:42.416Z,10.65
2019-04-21T06:13:49.827Z,10.75
2019-04-21T06:18:52.946Z,10.86
2019-04-21T06:23:57.304Z,10.96
2019-04-21T06:29:00.972Z,11.08
2019-04-21T06:34:06.741Z,11.16
2019-04-21T06:44:23.684Z,11.40
2019-04-21T06:49:22.284Z,11.58
2019-04-21T06:54:30.495Z,11.75
2019-04-21T06:59:33.736Z,11.98
2019-04-21T07:04:46.489Z,12.43
2019-04-21T07:09:52.968Z,12.85
2019-04-21T07:14:53.342Z,13.43
2019-04-21T07:20:00.140Z,14.01
2019-04-21T07:25:10.768Z,14.53
2019-04-21T07:30:14.851Z,14.91
2019-04-21T07:35:18.924Z,15.39
2019-04-21T07:40:13.437Z,15.93
2019-04-21T07:45:16.582Z,16.39
2019-04-21T07:50:38.266Z,16.87
2019-04-21T08:01:07.870Z,17.87
2019-04-21T08:05:58.600Z,18.24
2019-04-21T08:10:57.335Z,18.69
2019-04-21T08:16:06.185Z,19.07
2019-04-21T08:21:09.056Z,19.27
2019-04-21T08:26:20.343Z,19.75
2019-04-21T08:31:27.937Z,19.98
2019-04-21T08:41:30.915Z,20.64
2019-04-21T08:46:39.198Z,20.99
2019-04-21T08:52:06.205Z,21.57
2019-04-21T08:56:46.797Z,21.51
2019-04-21T09:01:57.306Z,22.10
2019-04-21T09:07:20.014Z,22.38
2019-04-21T09:12:04.366Z,22.74
2019-04-21T09:17:08.311Z,23.02
2019-04-21T09:22:17.888Z,23.56
2019-04-21T09:27:19.886Z,23.78
2019-04-21T09:32:18.493Z,24.10
2019-04-21T09:37:28.831Z,23.88
2019-04-21T09:42:33.341Z,24.09
2019-04-21T09:47:38.478Z,24.54
2019-04-21T09:52:44.381Z,24.76
2019-04-21T09:57:47.517Z,24.99
2019-04-21T10:02:54.613Z,25.36
2019-04-21T10:07:50.771Z,25.62
2019-04-21T10:12:54.363Z,25.61
2019-04-21T10:18:02.731Z,25.45
2019-04-21T10:23:07.187Z,25.42
2019-04-21T10:28:11.026Z,25.80
2019-04-21T10:33:14.727Z,26.42
2019-04-21T10:38:29.209Z,26.72
2019-04-21T10:43:24.386Z,26.95
2019-04-21T10:48:31.274Z,26.70
2019-04-21T10:53:36.721Z,26.57
2019-04-21T10:58:42.501Z,26.70
2019-04-21T11:03:53.021Z,27.27
2019-04-21T11:08:58.975Z,27.70
2019-04-21T11:14:02.439Z,28.24
2019-04-21T11:19:06.362Z,28.72
2019-04-21T11:24:10.232Z,28.63
2019-04-21T11:29:14.959Z,29.23
2019-04-21T11:34:18.865Z,28.69
2019-04-21T11:39:35.170Z,28.93
2019-04-21T11:44:29.232Z,28.88
2019-04-21T11:49:32.711Z,29.64
2019-04-21T11:54:37.056Z,30.12
2019-04-21T11:59:41.716Z,30.24
2019-04-21T12:04:45.485Z,29.99
2019-04-21T12:09:48.959Z,30.41
2019-04-21T12:14:52.553Z,30.65
2019-04-21T12:19:56.913Z,30.26
2019-04-21T12:25:00.936Z,30.18
2019-04-21T12:30:07.535Z,29.99
2019-04-21T12:35:12.785Z,30.65
2019-04-21T12:40:16.818Z,30.55
2019-04-21T12:45:24.184Z,31.31
2019-04-21T12:50:27.846Z,32.01
2019-04-21T12:55:36.624Z,32.11
2019-04-21T13:00:36.849Z,32.58
2019-04-21T13:05:40.374Z,31.82
2019-04-21T13:10:44.314Z,31.99
2019-04-21T13:15:49.308Z,32.05
2019-04-21T13:20:54.064Z,32.48
2019-04-21T13:25:57.655Z,32.96
2019-04-21T13:31:02.317Z,31.98
2019-04-21T13:36:07.520Z,31.85
2019-04-21T13:41:29.773Z,31.80
2019-04-21T13:46:20.701Z,32.64
2019-04-21T13:51:25.087Z,32.68
2019-04-21T13:56:28.896Z,32.13
2019-04-21T14:01:33.953Z,31.86
2019-04-21T14:06:38.427Z,32.26
2019-04-21T14:11:43.454Z,32.69
2019-04-21T14:16:47.966Z,32.87
2019-04-21T14:21:53.089Z,33.41
2019-04-21T14:26:56.757Z,32.92
2019-04-21T14:32:00.215Z,33.03
2019-04-21T14:37:04.498Z,32.31
2019-04-21T14:42:08.432Z,32.50
2019-04-21T14:47:31.431Z,32.83
2019-04-21T14:52:37.093Z,32.99
2019-04-21T14:57:41.137Z,32.32
2019-04-21T15:02:45.522Z,32.29
2019-04-21T15:07:49.189Z,31.83
2019-04-21T15:12:53.713Z,30.93
2019-04-21T15:17:59.863Z,31.28
2019-04-21T15:23:04.266Z,31.71
2019-04-21T15:28:08.062Z,31.54
2019-04-21T15:33:12.694Z,31.72
2019-04-21T15:38:16.232Z,32.15
2019-04-21T15:43:20.326Z,31.49
2019-04-21T15:48:24.022Z,31.12
2019-04-21T15:53:29.783Z,30.73
2019-04-21T15:58:48.384Z,30.76
2019-04-21T16:03:56.967Z,30.51
2019-04-21T16:09:00.886Z,30.37
2019-04-21T16:14:04.026Z,29.08
2019-04-21T16:19:08.139Z,29.35
2019-04-21T16:24:12.238Z,29.57
2019-04-21T16:29:17.261Z,29.42
2019-04-21T16:34:21.996Z,29.31
2019-04-21T16:39:25.522Z,28.50
2019-04-21T16:44:29.389Z,28.53
2019-04-21T16:49:33.727Z,27.72
2019-04-21T16:54:37.895Z,27.42
2019-04-21T16:59:44.363Z,27.43
2019-04-21T17:04:48.591Z,27.24
2019-04-21T17:09:52.824Z,26.99
2019-04-21T17:15:12.277Z,26.48
2019-04-21T17:20:15.812Z,26.08
2019-04-21T17:25:08.732Z,25.50
2019-04-21T17:30:15.142Z,25.19
2019-04-21T17:35:19.830Z,24.81
2019-04-21T17:40:26.463Z,24.55
2019-04-21T17:45:31.104Z,24.36
2019-04-21T17:50:49.495Z,24.16
2019-04-21T17:56:16.729Z,23.94
2019-04-21T18:01:29.721Z,23.62
2019-04-21T18:06:25.786Z,23.35
2019-04-21T18:11:37.106Z,23.09
2019-04-21T18:16:29.065Z,22.76
2019-04-21T18:21:46.940Z,22.41
2019-04-21T18:26:54.387Z,22.10
2019-04-21T18:31:54.598Z,21.89
2019-04-21T18:37:05.483Z,21.68
2019-04-21T18:42:26.356Z,21.50
2019-04-21T18:47:35.564Z,21.32
2019-04-21T18:52:45.806Z,21.14
2019-04-21T18:57:42.059Z,20.96
2019-04-21T19:02:45.535Z,20.85
2019-04-21T19:08:02.939Z,20.58
2019-04-21T19:13:29.144Z,20.37
2019-04-21T19:18:35.126Z,20.08
2019-04-21T19:23:27.125Z,19.92
2019-04-21T19:28:24.616Z,19.73
2019-04-21T19:33:30.645Z,19.70
2019-04-21T19:38:30.646Z,19.59
2019-04-21T19:43:49.209Z,19.51
2019-04-21T19:48:56.560Z,19.33
2019-04-21T19:53:44.393Z,19.26
2019-04-21T19:58:43.561Z,19.13
2019-04-21T20:03:48.619Z,19.07
2019-04-21T20:09:08.380Z,19.05
2019-04-21T20:14:43.144Z,18.99
2019-04-21T20:19:06.865Z,18.89
2019-04-21T20:24:11.170Z,18.77
2019-04-21T20:29:31.005Z,18.69
2019-04-21T20:34:38.761Z,18.47
2019-04-21T20:39:28.335Z,18.39
2019-04-21T20:44:52.850Z,18.36
2019-04-21T20:49:41.745Z,18.16
2019-04-21T20:54:53.916Z,18.10
2019-04-21T21:00:08.755Z,17.97
2019-04-21T21:05:00.690Z,17.88
2019-04-21T21:10:14.126Z,17.86
2019-04-21T21:15:10.006Z,17.79
2019-04-21T21:20:29.488Z,17.66
2019-04-21T21:25:40.083Z,17.48
2019-04-21T21:30:32.422Z,17.39
2019-04-21T21:35:35.931Z,17.23
2019-04-21T21:40:45.542Z,17.12
2019-04-21T21:45:42.340Z,16.98
2019-04-21T21:50:54.302Z,16.81
2019-04-21T21:55:48.797Z,16.69
2019-04-21T22:00:58.522Z,16.63
2019-04-21T22:06:04.965Z,16.55
2019-04-21T22:11:05.447Z,16.49
2019-04-21T22:16:14.060Z,16.27
2019-04-21T22:21:34.066Z,16.17
2019-04-21T22:26:20.668Z,16.12
2019-04-21T22:31:30.083Z,15.95
2019-04-21T22:36:43.731Z,15.90
2019-04-21T22:41:41.215Z,15.86
2019-04-21T22:46:52.941Z,15.73
2019-04-21T22:51:49.291Z,15.72
2019-04-21T22:56:58.582Z,15.61
2019-04-21T23:01:56.169Z,15.53
2019-04-21T23:07:06.968Z,15.40
2019-04-21T23:12:06.222Z,15.32
2019-04-21T23:17:29.551Z,15.20
2019-04-21T23:22:34.054Z,15.13
2019-04-21T23:27:38.747Z,15.06
2019-04-21T23:32:36.315Z,14.99
2019-04-21T23:37:34.131Z,14.93
2019-04-21T23:42:41.552Z,14.83
2019-04-21T23:47:53.709Z,14.77
2019-04-21T23:52:47.767Z,14.77
2019-04-21T23:57:56.128Z,14.66
